CheckWX is a tool to help pilots better visualize weather data.  It is not intended as a substitute for an official pre-flight weather briefing.

07:16:49 UTC

KMEI TAF
Key Field Airport
Meridian, Mississippi, USA
KMEI 180528Z 1806/1906 08005KT P6SM FEW250

Sep-18@
06:00 UTC

Sep-18 @ 06:00 UTC

Sep-19@
06:00 UTC

Sep-19 @ 06:00 UTC

KMEI 180528Z 1806/1906 08005KT P6SM FEW250
Wind
  • 080° at 5 KTS
Cloud Levels
  • Few at 25,000' AGL